Dover Foxcroft, Maine
Current Conditions -  °F | °C
As of 6:53 PM on Friday 28 Nov 2014 (Local Time) from KBGR Reporting Station
Broken Clouds Broken Clouds  
Wind Chill: -10°   Ceiling: 7000
Heat Index: -4°   Visibility: 10mi
Dew Point: -7°   Wind: 9mph
Humidity: 81%   Direction: 280°W
Pressure: 30.07"   Gusts: NA
Location:  45.19°N, 69.23°W
Report Text: KBGR 282353Z 28008KT 10SM SCT050 BKN070 M04/M07 A3007 RMK AO2 SLP189 4/009 T10441072 11039 21061 51015
Loading
Personal Weather Stations






























Interactive Weather Map New forecast layout! Learn more

10-Day Weather Forecast

Advertisements
Track Severe Weather on mobile